sensor_id;sensor_type;location;lat;lon;timestamp;P1;durP1;ratioP1;P2;durP2;ratioP2
9436;SDS011;4757;59.334;18.034;2022-12-29T00:00:59;4.20;;;3.43;;
9436;SDS011;4757;59.334;18.034;2022-12-29T00:03:27;5.53;;;3.20;;
9436;SDS011;4757;59.334;18.034;2022-12-29T00:05:55;4.80;;;3.30;;
9436;SDS011;4757;59.334;18.034;2022-12-29T00:08:23;4.87;;;3.17;;
9436;SDS011;4757;59.334;18.034;2022-12-29T00:11:07;6.87;;;3.43;;
9436;SDS011;4757;59.334;18.034;2022-12-29T00:13:38;6.93;;;4.20;;
9436;SDS011;4757;59.334;18.034;2022-12-29T00:16:25;8.60;;;3.33;;
9436;SDS011;4757;59.334;18.034;2022-12-29T00:18:52;4.80;;;3.00;;
9436;SDS011;4757;59.334;18.034;2022-12-29T00:21:20;5.67;;;3.63;;
9436;SDS011;4757;59.334;18.034;2022-12-29T00:24:17;4.30;;;2.87;;
9436;SDS011;4757;59.334;18.034;2022-12-29T00:27:25;7.83;;;3.60;;
9436;SDS011;4757;59.334;18.034;2022-12-29T00:30:14;4.47;;;3.10;;
9436;SDS011;4757;59.334;18.034;2022-12-29T00:33:11;6.53;;;3.63;;
9436;SDS011;4757;59.334;18.034;2022-12-29T00:36:03;5.00;;;3.20;;
9436;SDS011;4757;59.334;18.034;2022-12-29T00:38:35;6.17;;;3.97;;
9436;SDS011;4757;59.334;18.034;2022-12-29T00:41:22;6.77;;;3.97;;
9436;SDS011;4757;59.334;18.034;2022-12-29T00:44:08;5.93;;;3.37;;
9436;SDS011;4757;59.334;18.034;2022-12-29T00:46:37;5.70;;;3.37;;
9436;SDS011;4757;59.334;18.034;2022-12-29T00:49:11;8.07;;;4.10;;
9436;SDS011;4757;59.334;18.034;2022-12-29T00:52:08;5.80;;;3.50;;
9436;SDS011;4757;59.334;18.034;2022-12-29T00:54:38;5.57;;;3.63;;
9436;SDS011;4757;59.334;18.034;2022-12-29T00:57:07;5.30;;;3.57;;
9436;SDS011;4757;59.334;18.034;2022-12-29T00:59:36;4.43;;;3.33;;
9436;SDS011;4757;59.334;18.034;2022-12-29T01:02:03;4.73;;;3.20;;
9436;SDS011;4757;59.334;18.034;2022-12-29T01:04:31;5.43;;;3.23;;
9436;SDS011;4757;59.334;18.034;2022-12-29T01:06:59;7.60;;;3.33;;
9436;SDS011;4757;59.334;18.034;2022-12-29T01:09:26;4.83;;;3.23;;
9436;SDS011;4757;59.334;18.034;2022-12-29T01:12:12;3.87;;;3.00;;
9436;SDS011;4757;59.334;18.034;2022-12-29T01:14:39;4.53;;;3.33;;
9436;SDS011;4757;59.334;18.034;2022-12-29T01:17:06;5.60;;;3.43;;
9436;SDS011;4757;59.334;18.034;2022-12-29T01:19:33;6.90;;;3.33;;
9436;SDS011;4757;59.334;18.034;2022-12-29T01:22:01;4.77;;;3.03;;
9436;SDS011;4757;59.334;18.034;2022-12-29T01:24:28;5.80;;;3.47;;
9436;SDS011;4757;59.334;18.034;2022-12-29T01:26:55;4.80;;;2.77;;
9436;SDS011;4757;59.334;18.034;2022-12-29T01:29:22;9.27;;;3.87;;
9436;SDS011;4757;59.334;18.034;2022-12-29T01:31:49;7.97;;;3.90;;
9436;SDS011;4757;59.334;18.034;2022-12-29T01:34:16;9.20;;;4.33;;
9436;SDS011;4757;59.334;18.034;2022-12-29T01:36:44;4.17;;;2.47;;
9436;SDS011;4757;59.334;18.034;2022-12-29T01:39:11;5.90;;;3.47;;
9436;SDS011;4757;59.334;18.034;2022-12-29T01:41:39;5.67;;;3.13;;
9436;SDS011;4757;59.334;18.034;2022-12-29T01:47:11;6.20;;;3.80;;
9436;SDS011;4757;59.334;18.034;2022-12-29T01:49:40;9.93;;;3.73;;
9436;SDS011;4757;59.334;18.034;2022-12-29T01:52:07;5.83;;;3.60;;
9436;SDS011;4757;59.334;18.034;2022-12-29T01:54:42;5.40;;;2.80;;
9436;SDS011;4757;59.334;18.034;2022-12-29T01:57:15;4.00;;;2.70;;
9436;SDS011;4757;59.334;18.034;2022-12-29T01:59:49;4.00;;;3.03;;
9436;SDS011;4757;59.334;18.034;2022-12-29T02:02:23;4.87;;;2.43;;
9436;SDS011;4757;59.334;18.034;2022-12-29T02:04:50;4.47;;;2.70;;
9436;SDS011;4757;59.334;18.034;2022-12-29T02:07:20;7.90;;;2.97;;
9436;SDS011;4757;59.334;18.034;2022-12-29T02:09:51;4.93;;;2.87;;
9436;SDS011;4757;59.334;18.034;2022-12-29T02:12:21;5.10;;;2.77;;
9436;SDS011;4757;59.334;18.034;2022-12-29T02:14:50;6.33;;;3.23;;
9436;SDS011;4757;59.334;18.034;2022-12-29T02:22:57;8.60;;;3.37;;
9436;SDS011;4757;59.334;18.034;2022-12-29T02:37:21;4.97;;;3.07;;
9436;SDS011;4757;59.334;18.034;2022-12-29T02:40:24;3.57;;;2.50;;
9436;SDS011;4757;59.334;18.034;2022-12-29T02:45:55;3.83;;;2.67;;
9436;SDS011;4757;59.334;18.034;2022-12-29T02:48:47;6.23;;;2.80;;
9436;SDS011;4757;59.334;18.034;2022-12-29T02:51:23;5.90;;;3.03;;
9436;SDS011;4757;59.334;18.034;2022-12-29T02:53:58;4.93;;;3.37;;
9436;SDS011;4757;59.334;18.034;2022-12-29T02:56:44;5.43;;;3.77;;
9436;SDS011;4757;59.334;18.034;2022-12-29T02:59:11;4.37;;;2.80;;
9436;SDS011;4757;59.334;18.034;2022-12-29T03:02:05;3.43;;;2.47;;
9436;SDS011;4757;59.334;18.034;2022-12-29T03:07:57;6.00;;;3.20;;
9436;SDS011;4757;59.334;18.034;2022-12-29T03:24:52;6.10;;;3.53;;
9436;SDS011;4757;59.334;18.034;2022-12-29T03:27:24;4.90;;;3.20;;
9436;SDS011;4757;59.334;18.034;2022-12-29T03:29:56;5.80;;;3.77;;
9436;SDS011;4757;59.334;18.034;2022-12-29T03:32:46;5.17;;;3.63;;
9436;SDS011;4757;59.334;18.034;2022-12-29T03:35:17;7.73;;;3.90;;
9436;SDS011;4757;59.334;18.034;2022-12-29T03:38:50;5.47;;;3.67;;
9436;SDS011;4757;59.334;18.034;2022-12-29T03:40:46;5.50;;;4.27;;
9436;SDS011;4757;59.334;18.034;2022-12-29T03:43:16;6.33;;;3.73;;
9436;SDS011;4757;59.334;18.034;2022-12-29T03:45:44;5.13;;;3.50;;
9436;SDS011;4757;59.334;18.034;2022-12-29T03:48:11;5.00;;;3.70;;
9436;SDS011;4757;59.334;18.034;2022-12-29T03:50:39;7.77;;;3.70;;
9436;SDS011;4757;59.334;18.034;2022-12-29T03:53:06;6.07;;;4.00;;
9436;SDS011;4757;59.334;18.034;2022-12-29T03:55:34;5.10;;;3.53;;
9436;SDS011;4757;59.334;18.034;2022-12-29T03:58:01;5.03;;;3.97;;
9436;SDS011;4757;59.334;18.034;2022-12-29T04:00:28;6.17;;;3.77;;
9436;SDS011;4757;59.334;18.034;2022-12-29T04:02:55;5.97;;;4.10;;
9436;SDS011;4757;59.334;18.034;2022-12-29T04:05:23;4.50;;;3.47;;
9436;SDS011;4757;59.334;18.034;2022-12-29T04:07:50;5.13;;;3.50;;
9436;SDS011;4757;59.334;18.034;2022-12-29T04:10:17;4.37;;;3.53;;
9436;SDS011;4757;59.334;18.034;2022-12-29T04:12:44;7.70;;;3.97;;
9436;SDS011;4757;59.334;18.034;2022-12-29T04:15:12;4.93;;;2.97;;
9436;SDS011;4757;59.334;18.034;2022-12-29T04:17:40;4.13;;;3.73;;
9436;SDS011;4757;59.334;18.034;2022-12-29T04:20:07;4.17;;;3.63;;
9436;SDS011;4757;59.334;18.034;2022-12-29T04:23:00;4.20;;;3.00;;
9436;SDS011;4757;59.334;18.034;2022-12-29T04:25:28;5.03;;;3.77;;
9436;SDS011;4757;59.334;18.034;2022-12-29T04:27:56;3.87;;;3.57;;
9436;SDS011;4757;59.334;18.034;2022-12-29T04:30:23;4.63;;;3.37;;
9436;SDS011;4757;59.334;18.034;2022-12-29T04:32:50;5.73;;;4.20;;
9436;SDS011;4757;59.334;18.034;2022-12-29T04:35:18;6.00;;;3.97;;
9436;SDS011;4757;59.334;18.034;2022-12-29T04:37:45;3.93;;;3.43;;
9436;SDS011;4757;59.334;18.034;2022-12-29T04:40:12;5.93;;;3.57;;
9436;SDS011;4757;59.334;18.034;2022-12-29T04:42:39;4.53;;;3.23;;
9436;SDS011;4757;59.334;18.034;2022-12-29T04:45:06;4.00;;;3.27;;
9436;SDS011;4757;59.334;18.034;2022-12-29T04:47:34;5.20;;;3.50;;
9436;SDS011;4757;59.334;18.034;2022-12-29T04:50:01;4.00;;;3.60;;
9436;SDS011;4757;59.334;18.034;2022-12-29T04:52:28;3.97;;;3.60;;
9436;SDS011;4757;59.334;18.034;2022-12-29T04:54:56;8.20;;;4.10;;
9436;SDS011;4757;59.334;18.034;2022-12-29T04:57:23;4.77;;;3.17;;
9436;SDS011;4757;59.334;18.034;2022-12-29T04:59:54;4.67;;;3.60;;
9436;SDS011;4757;59.334;18.034;2022-12-29T05:02:21;5.60;;;3.80;;
9436;SDS011;4757;59.334;18.034;2022-12-29T05:04:49;5.57;;;4.10;;
9436;SDS011;4757;59.334;18.034;2022-12-29T05:07:16;6.23;;;4.00;;
9436;SDS011;4757;59.334;18.034;2022-12-29T05:09:43;4.30;;;3.90;;
9436;SDS011;4757;59.334;18.034;2022-12-29T05:12:11;5.30;;;3.67;;
9436;SDS011;4757;59.334;18.034;2022-12-29T05:14:39;4.40;;;3.57;;
9436;SDS011;4757;59.334;18.034;2022-12-29T05:17:06;6.07;;;3.80;;
9436;SDS011;4757;59.334;18.034;2022-12-29T05:19:33;3.70;;;3.03;;
9436;SDS011;4757;59.334;18.034;2022-12-29T05:22:00;9.03;;;3.80;;
9436;SDS011;4757;59.334;18.034;2022-12-29T05:24:27;4.67;;;3.50;;
9436;SDS011;4757;59.334;18.034;2022-12-29T05:26:54;5.20;;;3.80;;
9436;SDS011;4757;59.334;18.034;2022-12-29T05:29:21;3.50;;;3.10;;
9436;SDS011;4757;59.334;18.034;2022-12-29T05:31:48;3.90;;;3.27;;
9436;SDS011;4757;59.334;18.034;2022-12-29T05:34:15;4.90;;;2.87;;
9436;SDS011;4757;59.334;18.034;2022-12-29T05:36:43;8.43;;;3.50;;
9436;SDS011;4757;59.334;18.034;2022-12-29T05:39:10;9.77;;;4.50;;
9436;SDS011;4757;59.334;18.034;2022-12-29T05:41:37;6.33;;;3.27;;
9436;SDS011;4757;59.334;18.034;2022-12-29T05:44:04;4.53;;;3.57;;
9436;SDS011;4757;59.334;18.034;2022-12-29T05:46:31;4.83;;;3.23;;
9436;SDS011;4757;59.334;18.034;2022-12-29T05:48:58;4.47;;;3.90;;
9436;SDS011;4757;59.334;18.034;2022-12-29T05:51:25;6.03;;;3.63;;
9436;SDS011;4757;59.334;18.034;2022-12-29T05:53:52;3.97;;;3.30;;
9436;SDS011;4757;59.334;18.034;2022-12-29T05:56:19;5.10;;;3.40;;
9436;SDS011;4757;59.334;18.034;2022-12-29T05:58:47;4.03;;;3.50;;
9436;SDS011;4757;59.334;18.034;2022-12-29T06:01:14;3.37;;;2.80;;
9436;SDS011;4757;59.334;18.034;2022-12-29T06:03:42;4.13;;;3.50;;
9436;SDS011;4757;59.334;18.034;2022-12-29T06:06:13;3.53;;;3.03;;
9436;SDS011;4757;59.334;18.034;2022-12-29T06:08:41;5.63;;;3.60;;
9436;SDS011;4757;59.334;18.034;2022-12-29T06:11:08;6.33;;;3.87;;
9436;SDS011;4757;59.334;18.034;2022-12-29T06:13:35;4.63;;;3.00;;
9436;SDS011;4757;59.334;18.034;2022-12-29T06:16:03;5.20;;;3.07;;
9436;SDS011;4757;59.334;18.034;2022-12-29T06:18:30;5.37;;;3.33;;
9436;SDS011;4757;59.334;18.034;2022-12-29T06:21:01;3.43;;;3.13;;
9436;SDS011;4757;59.334;18.034;2022-12-29T06:23:29;4.17;;;3.27;;
9436;SDS011;4757;59.334;18.034;2022-12-29T06:25:57;3.97;;;3.20;;
9436;SDS011;4757;59.334;18.034;2022-12-29T06:28:25;4.00;;;3.60;;
9436;SDS011;4757;59.334;18.034;2022-12-29T06:30:52;9.27;;;4.83;;
9436;SDS011;4757;59.334;18.034;2022-12-29T06:33:19;5.77;;;3.83;;
9436;SDS011;4757;59.334;18.034;2022-12-29T06:35:47;5.80;;;3.13;;
9436;SDS011;4757;59.334;18.034;2022-12-29T06:38:14;4.87;;;3.43;;
9436;SDS011;4757;59.334;18.034;2022-12-29T06:40:42;3.03;;;1.97;;
9436;SDS011;4757;59.334;18.034;2022-12-29T06:43:11;5.80;;;4.20;;
9436;SDS011;4757;59.334;18.034;2022-12-29T06:45:39;6.70;;;3.10;;
9436;SDS011;4757;59.334;18.034;2022-12-29T06:48:07;3.93;;;3.47;;
9436;SDS011;4757;59.334;18.034;2022-12-29T06:50:34;5.93;;;3.30;;
9436;SDS011;4757;59.334;18.034;2022-12-29T06:53:02;5.20;;;3.90;;
9436;SDS011;4757;59.334;18.034;2022-12-29T06:55:29;4.93;;;3.70;;
9436;SDS011;4757;59.334;18.034;2022-12-29T06:57:56;4.37;;;3.67;;
9436;SDS011;4757;59.334;18.034;2022-12-29T07:00:24;6.57;;;3.80;;
9436;SDS011;4757;59.334;18.034;2022-12-29T07:02:51;10.90;;;4.23;;
9436;SDS011;4757;59.334;18.034;2022-12-29T07:05:20;4.93;;;3.07;;
9436;SDS011;4757;59.334;18.034;2022-12-29T07:07:47;6.37;;;3.70;;
9436;SDS011;4757;59.334;18.034;2022-12-29T07:10:14;4.73;;;3.60;;
9436;SDS011;4757;59.334;18.034;2022-12-29T07:12:42;7.63;;;4.40;;
9436;SDS011;4757;59.334;18.034;2022-12-29T07:15:09;10.43;;;5.17;;
9436;SDS011;4757;59.334;18.034;2022-12-29T07:17:37;7.73;;;4.67;;
9436;SDS011;4757;59.334;18.034;2022-12-29T07:20:04;11.77;;;6.20;;
9436;SDS011;4757;59.334;18.034;2022-12-29T07:22:34;7.00;;;5.20;;
9436;SDS011;4757;59.334;18.034;2022-12-29T07:25:02;8.40;;;5.13;;
9436;SDS011;4757;59.334;18.034;2022-12-29T07:27:29;8.10;;;3.87;;
9436;SDS011;4757;59.334;18.034;2022-12-29T07:29:56;10.70;;;5.13;;
9436;SDS011;4757;59.334;18.034;2022-12-29T07:32:23;6.03;;;4.90;;
9436;SDS011;4757;59.334;18.034;2022-12-29T07:34:51;9.97;;;4.87;;
9436;SDS011;4757;59.334;18.034;2022-12-29T07:37:18;10.60;;;5.60;;
9436;SDS011;4757;59.334;18.034;2022-12-29T07:39:46;10.00;;;5.63;;
9436;SDS011;4757;59.334;18.034;2022-12-29T07:42:13;7.10;;;4.23;;
9436;SDS011;4757;59.334;18.034;2022-12-29T07:44:40;8.53;;;5.03;;
9436;SDS011;4757;59.334;18.034;2022-12-29T07:47:07;11.30;;;5.43;;
9436;SDS011;4757;59.334;18.034;2022-12-29T07:49:34;7.47;;;4.43;;
9436;SDS011;4757;59.334;18.034;2022-12-29T07:52:01;13.67;;;5.30;;
9436;SDS011;4757;59.334;18.034;2022-12-29T07:54:28;9.23;;;5.50;;
9436;SDS011;4757;59.334;18.034;2022-12-29T07:56:55;7.47;;;5.13;;
9436;SDS011;4757;59.334;18.034;2022-12-29T07:59:24;13.50;;;4.33;;
9436;SDS011;4757;59.334;18.034;2022-12-29T08:01:51;9.47;;;4.77;;
9436;SDS011;4757;59.334;18.034;2022-12-29T08:04:18;7.23;;;3.40;;
9436;SDS011;4757;59.334;18.034;2022-12-29T08:06:45;4.27;;;2.97;;
9436;SDS011;4757;59.334;18.034;2022-12-29T08:09:12;4.87;;;4.00;;
9436;SDS011;4757;59.334;18.034;2022-12-29T08:11:47;4.17;;;3.73;;
9436;SDS011;4757;59.334;18.034;2022-12-29T08:14:14;6.50;;;4.20;;
9436;SDS011;4757;59.334;18.034;2022-12-29T08:16:41;5.70;;;3.50;;
9436;SDS011;4757;59.334;18.034;2022-12-29T08:19:10;4.20;;;3.73;;
9436;SDS011;4757;59.334;18.034;2022-12-29T08:21:38;5.50;;;3.20;;
9436;SDS011;4757;59.334;18.034;2022-12-29T08:24:05;4.77;;;3.20;;
9436;SDS011;4757;59.334;18.034;2022-12-29T08:26:34;4.17;;;3.20;;
9436;SDS011;4757;59.334;18.034;2022-12-29T08:29:01;5.70;;;3.33;;
9436;SDS011;4757;59.334;18.034;2022-12-29T08:31:28;4.47;;;3.07;;
9436;SDS011;4757;59.334;18.034;2022-12-29T08:33:56;6.73;;;2.60;;
9436;SDS011;4757;59.334;18.034;2022-12-29T08:36:23;7.70;;;3.03;;
9436;SDS011;4757;59.334;18.034;2022-12-29T08:38:50;4.83;;;3.37;;
9436;SDS011;4757;59.334;18.034;2022-12-29T08:41:17;3.60;;;3.10;;
9436;SDS011;4757;59.334;18.034;2022-12-29T08:43:47;4.03;;;2.60;;
9436;SDS011;4757;59.334;18.034;2022-12-29T08:46:15;4.03;;;2.20;;
9436;SDS011;4757;59.334;18.034;2022-12-29T08:48:43;4.10;;;2.60;;
9436;SDS011;4757;59.334;18.034;2022-12-29T08:51:10;5.27;;;3.20;;
9436;SDS011;4757;59.334;18.034;2022-12-29T08:53:37;5.47;;;3.67;;
9436;SDS011;4757;59.334;18.034;2022-12-29T08:56:05;4.63;;;3.37;;
9436;SDS011;4757;59.334;18.034;2022-12-29T08:58:32;4.43;;;3.23;;
9436;SDS011;4757;59.334;18.034;2022-12-29T09:00:59;6.17;;;3.93;;
9436;SDS011;4757;59.334;18.034;2022-12-29T09:03:27;4.97;;;2.80;;
9436;SDS011;4757;59.334;18.034;2022-12-29T09:06:14;4.20;;;3.33;;
9436;SDS011;4757;59.334;18.034;2022-12-29T09:08:43;6.23;;;2.80;;
9436;SDS011;4757;59.334;18.034;2022-12-29T09:11:16;3.93;;;3.03;;
9436;SDS011;4757;59.334;18.034;2022-12-29T09:13:46;3.03;;;2.67;;
9436;SDS011;4757;59.334;18.034;2022-12-29T09:16:14;4.83;;;2.70;;
9436;SDS011;4757;59.334;18.034;2022-12-29T09:18:43;3.07;;;2.20;;
9436;SDS011;4757;59.334;18.034;2022-12-29T09:21:11;2.60;;;1.83;;
9436;SDS011;4757;59.334;18.034;2022-12-29T09:23:39;2.80;;;1.80;;
9436;SDS011;4757;59.334;18.034;2022-12-29T09:26:07;2.37;;;2.13;;
9436;SDS011;4757;59.334;18.034;2022-12-29T09:28:35;2.37;;;1.80;;
9436;SDS011;4757;59.334;18.034;2022-12-29T09:31:03;2.20;;;1.70;;
9436;SDS011;4757;59.334;18.034;2022-12-29T09:33:30;1.60;;;1.50;;
9436;SDS011;4757;59.334;18.034;2022-12-29T09:36:00;1.27;;;1.17;;
9436;SDS011;4757;59.334;18.034;2022-12-29T09:38:27;2.23;;;1.00;;
9436;SDS011;4757;59.334;18.034;2022-12-29T09:40:56;2.23;;;1.33;;
9436;SDS011;4757;59.334;18.034;2022-12-29T09:46:25;2.33;;;1.30;;
9436;SDS011;4757;59.334;18.034;2022-12-29T09:51:48;1.57;;;1.47;;
9436;SDS011;4757;59.334;18.034;2022-12-29T09:54:39;1.50;;;1.37;;
9436;SDS011;4757;59.334;18.034;2022-12-29T09:57:13;1.70;;;1.60;;
9436;SDS011;4757;59.334;18.034;2022-12-29T09:59:50;1.50;;;1.40;;
9436;SDS011;4757;59.334;18.034;2022-12-29T10:10:53;4.37;;;3.03;;
9436;SDS011;4757;59.334;18.034;2022-12-29T10:14:15;2.80;;;2.53;;
9436;SDS011;4757;59.334;18.034;2022-12-29T10:19:31;3.17;;;2.40;;
9436;SDS011;4757;59.334;18.034;2022-12-29T10:25:16;4.37;;;2.63;;
9436;SDS011;4757;59.334;18.034;2022-12-29T10:27:47;3.33;;;2.83;;
9436;SDS011;4757;59.334;18.034;2022-12-29T10:30:15;3.27;;;2.57;;
9436;SDS011;4757;59.334;18.034;2022-12-29T10:32:50;4.57;;;3.10;;
9436;SDS011;4757;59.334;18.034;2022-12-29T10:35:25;3.33;;;2.70;;
9436;SDS011;4757;59.334;18.034;2022-12-29T10:38:04;3.30;;;2.20;;
9436;SDS011;4757;59.334;18.034;2022-12-29T10:41:04;2.53;;;1.73;;
9436;SDS011;4757;59.334;18.034;2022-12-29T10:43:42;3.60;;;2.80;;
9436;SDS011;4757;59.334;18.034;2022-12-29T10:46:14;3.40;;;2.93;;
9436;SDS011;4757;59.334;18.034;2022-12-29T10:48:45;2.30;;;2.10;;
9436;SDS011;4757;59.334;18.034;2022-12-29T10:51:22;3.77;;;2.60;;
9436;SDS011;4757;59.334;18.034;2022-12-29T10:53:55;2.97;;;2.30;;
9436;SDS011;4757;59.334;18.034;2022-12-29T10:56:31;3.00;;;2.70;;
9436;SDS011;4757;59.334;18.034;2022-12-29T10:59:10;2.30;;;2.00;;
9436;SDS011;4757;59.334;18.034;2022-12-29T11:01:42;2.47;;;1.93;;
9436;SDS011;4757;59.334;18.034;2022-12-29T11:07:14;2.10;;;1.70;;
9436;SDS011;4757;59.334;18.034;2022-12-29T11:09:47;1.73;;;1.63;;
9436;SDS011;4757;59.334;18.034;2022-12-29T11:12:19;3.30;;;2.80;;
9436;SDS011;4757;59.334;18.034;2022-12-29T11:14:46;2.07;;;1.93;;
9436;SDS011;4757;59.334;18.034;2022-12-29T11:17:26;1.90;;;1.60;;
9436;SDS011;4757;59.334;18.034;2022-12-29T11:19:53;1.50;;;1.40;;
9436;SDS011;4757;59.334;18.034;2022-12-29T11:22:22;1.20;;;1.10;;
9436;SDS011;4757;59.334;18.034;2022-12-29T11:24:51;1.37;;;1.27;;
9436;SDS011;4757;59.334;18.034;2022-12-29T11:27:22;1.87;;;1.50;;
9436;SDS011;4757;59.334;18.034;2022-12-29T11:29:51;1.83;;;1.73;;
9436;SDS011;4757;59.334;18.034;2022-12-29T11:34:55;1.40;;;1.30;;
9436;SDS011;4757;59.334;18.034;2022-12-29T11:37:31;2.43;;;1.80;;
9436;SDS011;4757;59.334;18.034;2022-12-29T11:40:18;1.70;;;1.47;;
9436;SDS011;4757;59.334;18.034;2022-12-29T11:42:48;1.90;;;1.70;;
9436;SDS011;4757;59.334;18.034;2022-12-29T11:47:56;1.70;;;1.47;;
9436;SDS011;4757;59.334;18.034;2022-12-29T11:50:28;1.83;;;1.50;;
9436;SDS011;4757;59.334;18.034;2022-12-29T11:52:59;1.67;;;1.57;;
9436;SDS011;4757;59.334;18.034;2022-12-29T11:55:28;2.10;;;1.70;;
9436;SDS011;4757;59.334;18.034;2022-12-29T11:57:57;1.80;;;1.70;;
9436;SDS011;4757;59.334;18.034;2022-12-29T12:00:28;1.70;;;1.60;;
9436;SDS011;4757;59.334;18.034;2022-12-29T12:03:00;2.00;;;1.40;;
9436;SDS011;4757;59.334;18.034;2022-12-29T12:05:57;1.70;;;1.60;;
9436;SDS011;4757;59.334;18.034;2022-12-29T12:08:35;1.90;;;1.80;;
9436;SDS011;4757;59.334;18.034;2022-12-29T12:16:35;1.90;;;1.70;;
9436;SDS011;4757;59.334;18.034;2022-12-29T12:19:31;1.70;;;1.60;;
9436;SDS011;4757;59.334;18.034;2022-12-29T12:22:02;1.60;;;1.50;;
9436;SDS011;4757;59.334;18.034;2022-12-29T12:24:46;4.70;;;1.90;;
9436;SDS011;4757;59.334;18.034;2022-12-29T12:27:38;3.43;;;1.70;;
9436;SDS011;4757;59.334;18.034;2022-12-29T12:32:54;1.40;;;1.27;;
9436;SDS011;4757;59.334;18.034;2022-12-29T12:35:40;1.60;;;1.50;;
9436;SDS011;4757;59.334;18.034;2022-12-29T12:41:07;1.60;;;1.50;;
9436;SDS011;4757;59.334;18.034;2022-12-29T13:05:13;2.80;;;2.60;;
9436;SDS011;4757;59.334;18.034;2022-12-29T13:16:27;2.27;;;2.07;;
9436;SDS011;4757;59.334;18.034;2022-12-29T13:32:55;2.97;;;2.20;;
9436;SDS011;4757;59.334;18.034;2022-12-29T13:36:00;2.30;;;2.07;;
9436;SDS011;4757;59.334;18.034;2022-12-29T13:38:42;2.10;;;1.90;;
9436;SDS011;4757;59.334;18.034;2022-12-29T13:43:52;1.93;;;1.70;;
9436;SDS011;4757;59.334;18.034;2022-12-29T13:46:23;1.73;;;1.60;;
9436;SDS011;4757;59.334;18.034;2022-12-29T13:51:42;2.10;;;1.70;;
9436;SDS011;4757;59.334;18.034;2022-12-29T13:54:39;2.67;;;1.53;;
9436;SDS011;4757;59.334;18.034;2022-12-29T13:57:48;0.83;;;0.83;;
9436;SDS011;4757;59.334;18.034;2022-12-29T14:00:29;1.23;;;1.13;;
9436;SDS011;4757;59.334;18.034;2022-12-29T14:06:12;1.30;;;1.17;;
9436;SDS011;4757;59.334;18.034;2022-12-29T14:08:46;1.53;;;1.43;;
9436;SDS011;4757;59.334;18.034;2022-12-29T14:11:15;1.00;;;1.00;;
9436;SDS011;4757;59.334;18.034;2022-12-29T14:13:45;1.83;;;1.70;;
9436;SDS011;4757;59.334;18.034;2022-12-29T14:19:29;1.50;;;1.40;;
9436;SDS011;4757;59.334;18.034;2022-12-29T14:22:02;3.90;;;1.60;;
9436;SDS011;4757;59.334;18.034;2022-12-29T14:34:56;1.83;;;1.70;;
9436;SDS011;4757;59.334;18.034;2022-12-29T14:42:46;1.57;;;1.43;;
9436;SDS011;4757;59.334;18.034;2022-12-29T14:47:45;2.20;;;2.00;;
9436;SDS011;4757;59.334;18.034;2022-12-29T14:52:48;2.40;;;2.20;;
9436;SDS011;4757;59.334;18.034;2022-12-29T14:58:29;3.80;;;3.10;;
9436;SDS011;4757;59.334;18.034;2022-12-29T15:01:03;4.93;;;3.83;;
9436;SDS011;4757;59.334;18.034;2022-12-29T15:03:45;4.00;;;3.40;;
9436;SDS011;4757;59.334;18.034;2022-12-29T15:06:17;7.00;;;3.43;;
9436;SDS011;4757;59.334;18.034;2022-12-29T15:11:31;4.43;;;4.03;;
9436;SDS011;4757;59.334;18.034;2022-12-29T15:17:48;4.30;;;3.47;;
9436;SDS011;4757;59.334;18.034;2022-12-29T15:19:58;5.50;;;3.20;;
9436;SDS011;4757;59.334;18.034;2022-12-29T15:22:29;4.97;;;3.93;;
9436;SDS011;4757;59.334;18.034;2022-12-29T15:24:58;4.77;;;4.27;;
9436;SDS011;4757;59.334;18.034;2022-12-29T15:27:25;4.60;;;3.90;;
9436;SDS011;4757;59.334;18.034;2022-12-29T15:29:57;4.03;;;3.53;;
9436;SDS011;4757;59.334;18.034;2022-12-29T15:32:29;4.67;;;3.03;;
9436;SDS011;4757;59.334;18.034;2022-12-29T15:35:21;4.37;;;3.43;;
9436;SDS011;4757;59.334;18.034;2022-12-29T15:37:54;3.93;;;3.27;;
9436;SDS011;4757;59.334;18.034;2022-12-29T15:40:29;4.97;;;3.70;;
9436;SDS011;4757;59.334;18.034;2022-12-29T15:43:05;5.27;;;3.17;;
9436;SDS011;4757;59.334;18.034;2022-12-29T15:45:51;2.70;;;2.40;;
9436;SDS011;4757;59.334;18.034;2022-12-29T15:48:22;6.43;;;4.37;;
9436;SDS011;4757;59.334;18.034;2022-12-29T15:50:50;3.80;;;3.20;;
9436;SDS011;4757;59.334;18.034;2022-12-29T15:53:19;3.87;;;2.63;;
9436;SDS011;4757;59.334;18.034;2022-12-29T15:56:01;2.53;;;2.33;;
9436;SDS011;4757;59.334;18.034;2022-12-29T15:58:45;2.70;;;2.50;;
9436;SDS011;4757;59.334;18.034;2022-12-29T16:01:30;2.93;;;2.57;;
9436;SDS011;4757;59.334;18.034;2022-12-29T16:04:04;3.87;;;2.37;;
9436;SDS011;4757;59.334;18.034;2022-12-29T16:06:37;3.60;;;2.43;;
9436;SDS011;4757;59.334;18.034;2022-12-29T16:09:17;2.93;;;2.10;;
9436;SDS011;4757;59.334;18.034;2022-12-29T16:11:46;6.00;;;3.00;;
9436;SDS011;4757;59.334;18.034;2022-12-29T16:14:29;4.77;;;2.83;;
9436;SDS011;4757;59.334;18.034;2022-12-29T16:17:01;4.00;;;2.40;;
9436;SDS011;4757;59.334;18.034;2022-12-29T16:19:34;6.23;;;2.90;;
9436;SDS011;4757;59.334;18.034;2022-12-29T16:22:09;3.47;;;2.90;;
9436;SDS011;4757;59.334;18.034;2022-12-29T16:24:38;4.20;;;2.67;;
9436;SDS011;4757;59.334;18.034;2022-12-29T16:29:47;4.33;;;3.03;;
9436;SDS011;4757;59.334;18.034;2022-12-29T16:32:25;4.77;;;4.30;;
9436;SDS011;4757;59.334;18.034;2022-12-29T16:38:07;6.87;;;2.90;;
9436;SDS011;4757;59.334;18.034;2022-12-29T16:43:24;3.90;;;2.97;;
9436;SDS011;4757;59.334;18.034;2022-12-29T16:51:13;7.00;;;4.17;;
9436;SDS011;4757;59.334;18.034;2022-12-29T16:53:47;4.33;;;3.17;;
9436;SDS011;4757;59.334;18.034;2022-12-29T16:56:21;6.37;;;4.23;;
9436;SDS011;4757;59.334;18.034;2022-12-29T16:58:55;4.33;;;3.83;;
9436;SDS011;4757;59.334;18.034;2022-12-29T17:01:43;6.30;;;3.40;;
9436;SDS011;4757;59.334;18.034;2022-12-29T17:04:11;6.27;;;3.90;;
9436;SDS011;4757;59.334;18.034;2022-12-29T17:06:39;7.27;;;4.27;;
9436;SDS011;4757;59.334;18.034;2022-12-29T17:09:17;4.97;;;3.80;;
9436;SDS011;4757;59.334;18.034;2022-12-29T17:11:48;4.50;;;3.63;;
9436;SDS011;4757;59.334;18.034;2022-12-29T17:19:42;5.47;;;3.80;;
9436;SDS011;4757;59.334;18.034;2022-12-29T17:22:15;5.87;;;3.63;;
9436;SDS011;4757;59.334;18.034;2022-12-29T17:24:44;6.07;;;4.10;;
9436;SDS011;4757;59.334;18.034;2022-12-29T17:27:19;9.00;;;4.63;;
9436;SDS011;4757;59.334;18.034;2022-12-29T17:29:50;7.70;;;3.83;;
9436;SDS011;4757;59.334;18.034;2022-12-29T17:32:20;4.80;;;4.17;;
9436;SDS011;4757;59.334;18.034;2022-12-29T17:34:47;6.57;;;4.23;;
9436;SDS011;4757;59.334;18.034;2022-12-29T17:37:33;5.27;;;3.73;;
9436;SDS011;4757;59.334;18.034;2022-12-29T17:40:03;6.30;;;3.80;;
9436;SDS011;4757;59.334;18.034;2022-12-29T17:42:32;5.63;;;3.80;;
9436;SDS011;4757;59.334;18.034;2022-12-29T17:45:03;9.03;;;4.20;;
9436;SDS011;4757;59.334;18.034;2022-12-29T17:47:30;5.97;;;4.07;;
9436;SDS011;4757;59.334;18.034;2022-12-29T17:49:58;7.53;;;4.30;;
9436;SDS011;4757;59.334;18.034;2022-12-29T17:52:26;3.93;;;3.17;;
9436;SDS011;4757;59.334;18.034;2022-12-29T17:54:53;6.93;;;3.43;;
9436;SDS011;4757;59.334;18.034;2022-12-29T17:57:21;6.10;;;3.57;;
9436;SDS011;4757;59.334;18.034;2022-12-29T17:59:48;4.43;;;3.90;;
9436;SDS011;4757;59.334;18.034;2022-12-29T18:02:29;3.73;;;3.20;;
9436;SDS011;4757;59.334;18.034;2022-12-29T18:04:58;5.13;;;3.10;;
9436;SDS011;4757;59.334;18.034;2022-12-29T18:07:25;4.90;;;3.10;;
9436;SDS011;4757;59.334;18.034;2022-12-29T18:10:01;4.67;;;3.30;;
9436;SDS011;4757;59.334;18.034;2022-12-29T18:12:34;5.20;;;3.37;;
9436;SDS011;4757;59.334;18.034;2022-12-29T18:15:05;5.73;;;3.33;;
9436;SDS011;4757;59.334;18.034;2022-12-29T18:17:36;6.47;;;3.33;;
9436;SDS011;4757;59.334;18.034;2022-12-29T18:20:03;6.00;;;3.80;;
9436;SDS011;4757;59.334;18.034;2022-12-29T18:22:32;5.73;;;3.63;;
9436;SDS011;4757;59.334;18.034;2022-12-29T18:25:00;4.90;;;3.43;;
9436;SDS011;4757;59.334;18.034;2022-12-29T18:27:28;5.13;;;3.57;;
9436;SDS011;4757;59.334;18.034;2022-12-29T18:29:56;4.20;;;2.77;;
9436;SDS011;4757;59.334;18.034;2022-12-29T18:32:23;5.30;;;3.30;;
9436;SDS011;4757;59.334;18.034;2022-12-29T18:34:50;7.57;;;3.30;;